Timeline UpdatesTrip UpdatesNews PostsPvt PostsTravel TipsAdmin PostsConv PostsFollowed PostsChat RequestsBlog PostsPNR Posts

Disclaimer
Search
 
 
Tue Sep 2, 2014 22:15:11 ISTHomeTrainsΣChainsAtlasPNRForumGalleryNewsFAQTripsMembersLoginFeedback
Latest...
.
Wed Feb 26, 2014 (11:14AM)
⇐ Return Journey: Train# 11077

11078/Jhelum Express

Time-Table HAS CHANGED.
Today (12:00AM)
Change Departure Station:
Change Arrival Station:
Post a Train Travel TipPost a Train Travel Tip **new
Post a Comment/Question/Picture/VideoPost a Comment/Question/Picture/Video
Inaugural Run
Sat Jan 01, 1977
Pantry/Catering
✓ Pantry Car Avbl
✓ Catering Avbl
Loco/Rake Reversals
DD/Daund Junction (7);
RSA - Rake Sharing
No RSA.
Rake/Coach Composition
Loco, LDS, UR, A1, A2, B1, B2, B3, B4,B5 S1, PC, S2, S3, S4, S5, S6, S7, S8, S9, S10, UR, UR, MLTY (JAT-DD);
Loco
JAT-LDH: LDH WDM-3A (Single/Twins) LDH-MMR: GZB/LDH WDM-3A MMR-PUNE: PUNE WDP-4D
News    PNR    Forum    Time-Table    Availability    Fare Chart    Map    Arr/Dep History    Trips    Gallery    ΣChains    X/O    Timeline    
Travel Time: 2h 20m    2 halts    Distance: 139 km    Avg Speed: 59 km/hr
Type: Mail/Express
Zone: CR/Central
Departs @ 19:55
Platform# 3
SMTWTFS
Bina Junction/BINA 
Arrives @ 22:15
Platform# 1
SMTWTFS
Bhopal Junction/BPL 

2 halts. 20 intermediate Stations between Bina Junction and Bhopal Junction

Show ALL intermediate Stations  Show Old Time-Table

#CodeStation NameX/OArrivesAvgDepartsAvgHaltPFDay#KmSpeedElevZoneAddress
1JATJammu Tawi (3)  -21:45-11-1140.771337mNRJammu 180002, Jammu and Kashmir
2VJPJVijaypur Jammu (2)  22:03-22:05-2m21-1119.446353mNRdistt. samba, Jammu and Kashmir
3SMBXSamba (2)  22:20-22:22-2m11-1108.063365mNRDist. Samba, Jammu and Kashmir
4HRNRHira Nagar (2)  22:36-22:38-2m21-1093.264380mNRHiranagar, Jammu and Kashmir
5KTHUKathua (2)  23:05-23:07-2m21-1064.442396mNRdistt. kathua, Jammu and Kashmir
6PTKCPathankot Cantt (3)  23:40-23:45-5m11-1041.257328mNRPathankot By Pass Ph:0186-2251594, Punjab
7MEXMukerian (3)  00:27-00:29-2m12-1001.453257mNRMukerian distt. hosiharpur, Punjab
8DZADasuya (2)  00:46-00:48-2m12-986.466251mNRDasuya distt. hoshiarpur, Punjab
9JRCJalandhar Cantt. Junction (3)X  01:40-01:45-5m32-928.854239mNRNear Rama Mandi, Punjab
10PGWPhagwara Junction (3)X  02:03-02:05-2m12-912.539245mNRPhagwara, Punjab
11LDHLudhiana Junction (7)X02:50 03:00-03:00 03:10-10m52-876.849246mNRLudhiana 141001, Punjab
12KNNKhanna (3)X  03:57 04:02-03:59 04:04-2m22-834.067269mNRNH 1, Punjab
13SIRSirhind Junction (3)XO  04:15 04:20-04:27 04:32-12m22-816.188271mNRSirhind, Punjab
14RPJRajpura Junction (3)XO  04:49-04:51-2m22-791.259272mNRNH-1, Punjab
15UBCAmbala City (3)X  05:12-05:14-2m12-770.817273mNRNH-1, Haryana
16UMBAmbala Cantt. Junction (7)X  05:40-05:50-10m22-763.263278mNRAmbala 133001, Haryana
17SHDMShahbad Markanda (2)X  06:09-06:11-2m12-743.358267mNRShahabad Markanda, Haryana
18KKDEKurukshetra Junction (3)  06:34-06:36-2m22-721.170260mNRKurukshetra, Haryana
19TRRTaraori (2)X  06:54-06:56-2m--2-700.152255mNRTaraori, Haryana
20KUNKarnal (3)X  07:10-07:12-2m12-688.066253mNRKarnal, Haryana
21GRAGharaunda (2)  07:28-07:30-2m--2-670.560244mNRGharaunda, Haryana
22PNPPanipat Junction (5)  07:47-07:49-2m22-653.678235mNRPanipat, Haryana
23SMKSamalkha (3)X08:02-08:04-2m--2-636.661229mNRSamalkha, Haryana
24GNUGanaur  08:16-08:18-2m--2-624.364222mNRGanaur, Haryana
25SNPSonipat (3)X  08:33-08:35-2m12-608.457225mNRSonipat, Haryana
26NURNarela (2)X  08:53-08:55-2m--2-591.342222mNRNarela, Delhi NCT
27SZMDelhi Sabzi Mandi (2)  09:28-09:30-2m--2-568.110220mNRGulabi Bagh, Delhi NCT
28NDLSNew Delhi (16)  10:00 09:55-10:20 10:15-20m42-563.960215mNRNew Delhi, Delhi NCT
29FDBFaridabad (4)X  10:51 10:43-10:53 10:45-2m32-535.859206mNRold Faridabad, Haryana
30MTJMathura Junction (10)  12:40-12:45-5m12-422.676179mNCRMathura, Uttar Pradesh
31RKMRaja Ki Mandi (4)X  13:24-13:26-2m12-372.910170mNCRAgra, Uttar Pradesh
32AGCAgra Cantt. (6)X  13:50-13:55-5m12-368.990174mNCRAgra, Uttar Pradesh
33DHODholpur Junction (3)X  14:30-14:32-2m22-316.370177mNCRDholpur, Rajasthan
34MRAMorena (3)  14:55-14:57-2m12-289.575176mNCRMorena, Madhya Pradesh
35GWLGwalior Junction (4)X  15:28-15:33-5m12-250.977214mNCRGwalior, Madhya Pradesh
36DBADabra (3)X  16:06-16:08-2m22-208.670 NCRDabra(District-Gwalior), Madhya Pradesh
37DAADatia (2)  16:34-16:36-2m12-178.341264mNCRDatia, Madhya Pradesh
38JHSJhansi Junction (7)X  17:13-17:23-10m32-153.267259mNCRJhansi, Uttar Pradesh
39BABBabina (3)  17:46-17:48-2m22-127.793285mNCRBabina, Uttar Pradesh
40LARLalitpur (3)X  18:30-18:32-2m12-62.947373mNCRLalitpur, Uttar Pradesh
41DUADhaura (3)O  19:09 19:08-19:11 19:10-2m--2-34.652407mNCRDhaura Tanda, Madhya Pradesh
42BINA»Bina Junction (4)»X  19:50-19:55-5m320.058414mWCRJn Pt - KATNI/GUNA/ BPL/JHS, Madhya Pradesh
43BAQGanj Basoda (4)  20:27 20:42-20:29 20:44-2m2245.884 WCRVidisha, Madhya Pradesh
44BHSVidisha (3)X  20:48 21:12-20:50 21:14-2m2285.153 WCRVidisha, Madhya Pradesh
45BPL•Bhopal Junction (6)•X  22:00 22:15-22:05 22:20-5m12138.638497mWCRBhopal, Madhya Pradesh
46HBJBhopal HabibGanj (5)X  22:15 22:30-22:17 22:32-2m42144.870496mWCRHabibGanj, Madhya Pradesh
47HBDHoshangabad (2)XO  23:15 23:30-23:17 23:32-2m22212.225308mWCRHoshangabad, Madhya Pradesh
48ETItarsi Junction (7)X  00:01 00:15-00:05 00:20-4 5m33230.384329mWCRItarsi 461111, Madhya Pradesh
49BPFBanapura (2)X  00:29 00:44-00:31 00:46-2m23263.882314mWCRBanapura, Madhya Pradesh
50HDHarda (3)  01:02 01:17-01:04 01:19-2m23306.187289mWCRHarda, Madhya Pradesh
51CAERChhanera (2)  01:48 02:02-01:50 02:04-2m23368.336283mWCRChhanera, Madhya Pradesh
52KNWKhandwa Junction (5)O  03:20-03:25-5m23413.778310mCRKhandwa, Madhya Pradesh
53BAUBurhanpur (2)  04:18-04:20-2m13482.673269mCRBurhanpur, Madhya Pradesh
54BSLBhusaval Junction (8)X  05:05-05:15-10m53537.163208mCRBhusaval 425201, Maharashtra
55JLJalgaon Junction (4)X  05:38-05:40-2m23561.2102213mCRJalgaon 425001, Maharashtra
56PCPachora Junction (4)X  06:08-06:10-2m23608.996264mCRPachora 424201, Maharashtra
57CSNChalisgaon Junction (3)  06:38-06:40-2m33653.890352mCRChalisgaon 424101, Maharashtra
58NGNNandgaon (3)  07:08-07:10-2m23695.951476mCRNandgaon, Maharashtra
59MMRManmad Junction (6)07:40-07:50-10m33721.331580mCRManmad 423104, Maharashtra
60KPGKopargaon (2)X  09:13-09:15-2m13763.562508mCRKopargaon 423601, Maharashtra
61BAPBelapur (2)X  09:58-10:00-2m23808.165541mCRShrirampur, Maharashtra
62ANGAhmadnagar (2)X  11:02-11:05-3m13875.246650mCRAhmednagar 414001, Maharashtra
63DDDaund Junction (7)X12:55-13:10-15m23959.436521mCRNew Daund Dist. Pune 413801, Maharashtra
64URIUruli (2)X  13:48 14:28-13:50 14:30-2m131006.243553mCRDist. Pune 412202, Maharashtra
65PUNEPune Junction (6)  14:35 15:10--331035.0-556mCRPune 411001, Maharashtra
Scroll to Top
Scroll to Bottom